createdAt,value
2022-12-03T00:00:30.078Z,23.00
2022-12-03T00:02:56.523Z,24.60
2022-12-03T00:05:23.216Z,26.00
2022-12-03T00:07:49.758Z,26.00
2022-12-03T00:10:16.370Z,27.40
2022-12-03T00:12:42.882Z,24.00
2022-12-03T00:15:09.798Z,23.00
2022-12-03T00:17:36.440Z,22.00
2022-12-03T00:20:03.491Z,21.75
2022-12-03T00:22:31.109Z,20.75
2022-12-03T00:24:57.685Z,24.00
2022-12-03T00:27:24.135Z,23.00
2022-12-03T00:29:50.636Z,23.40
2022-12-03T00:32:17.212Z,24.00
2022-12-03T00:34:43.902Z,25.60
2022-12-03T00:37:10.404Z,23.25
2022-12-03T00:39:36.846Z,24.00
2022-12-03T00:42:03.339Z,23.50
2022-12-03T00:44:29.871Z,22.80
2022-12-03T00:46:56.348Z,24.00
2022-12-03T00:49:22.866Z,26.60
2022-12-03T00:51:49.568Z,27.75
2022-12-03T00:54:16.103Z,25.00
2022-12-03T00:56:42.560Z,24.00
2022-12-03T00:59:09.035Z,24.00
2022-12-03T01:01:35.568Z,25.00
2022-12-03T01:04:02.058Z,25.50
2022-12-03T01:06:28.513Z,23.20
2022-12-03T01:08:54.993Z,24.25
2022-12-03T01:11:39.395Z,24.00
2022-12-03T01:14:06.541Z,24.75
2022-12-03T01:16:33.289Z,24.00
2022-12-03T01:18:59.879Z,26.00
2022-12-03T01:21:26.345Z,25.00
2022-12-03T01:23:52.736Z,25.00
2022-12-03T01:26:19.289Z,24.00
2022-12-03T01:28:45.885Z,27.00
2022-12-03T01:31:30.904Z,23.00
2022-12-03T01:33:57.508Z,23.80
2022-12-03T01:36:23.979Z,22.25
2022-12-03T01:38:50.406Z,21.00
2022-12-03T01:41:17.787Z,23.00
2022-12-03T01:43:45.084Z,21.00
2022-12-03T01:46:16.558Z,21.00
2022-12-03T01:48:43.576Z,21.00
2022-12-03T01:51:10.033Z,21.00
2022-12-03T01:53:36.530Z,23.50
2022-12-03T01:56:03.123Z,23.00
2022-12-03T01:58:29.877Z,23.50
2022-12-03T02:01:01.839Z,25.00
2022-12-03T02:03:28.556Z,24.00
2022-12-03T02:05:55.060Z,25.60
2022-12-03T02:08:35.148Z,25.60
2022-12-03T02:11:03.141Z,26.60
2022-12-03T02:13:29.637Z,27.40
2022-12-03T02:15:56.319Z,23.00
2022-12-03T02:18:23.004Z,24.60
2022-12-03T02:21:04.571Z,23.00
2022-12-03T02:23:31.020Z,21.00
2022-12-03T02:25:57.540Z,22.00
2022-12-03T02:28:23.948Z,21.00
2022-12-03T02:30:50.459Z,21.00
2022-12-03T02:33:17.103Z,22.50
2022-12-03T02:35:44.003Z,21.50
2022-12-03T02:38:16.414Z,22.00
2022-12-03T02:40:44.023Z,15.60
2022-12-03T02:43:11.732Z,13.00
2022-12-03T02:45:39.619Z,9.00
2022-12-03T02:48:08.710Z,10.00
2022-12-03T02:50:37.461Z,7.60
2022-12-03T02:53:07.216Z,8.80
2022-12-03T02:55:37.082Z,8.00
2022-12-03T02:58:04.977Z,8.00
2022-12-03T03:00:32.051Z,8.00
2022-12-03T03:02:58.583Z,6.40
2022-12-03T03:05:25.134Z,7.75
2022-12-03T03:07:51.624Z,8.00
2022-12-03T03:10:20.915Z,6.75
2022-12-03T03:12:47.432Z,5.00
2022-12-03T03:15:14.209Z,7.00
2022-12-03T03:17:41.118Z,7.60
2022-12-03T03:20:09.121Z,7.00
2022-12-03T03:22:36.905Z,6.25
2022-12-03T03:25:04.432Z,8.00
2022-12-03T03:27:31.007Z,6.50
2022-12-03T03:29:58.289Z,8.00
2022-12-03T03:32:25.709Z,9.00
2022-12-03T03:34:52.738Z,8.50
2022-12-03T03:37:19.441Z,9.00
2022-12-03T03:39:45.874Z,9.75
2022-12-03T03:42:12.354Z,9.00
2022-12-03T03:44:38.973Z,7.80
2022-12-03T03:47:05.602Z,10.00
2022-12-03T03:49:32.210Z,10.40
2022-12-03T03:51:58.800Z,9.00
2022-12-03T03:54:25.710Z,11.50
2022-12-03T03:56:52.289Z,15.00
2022-12-03T03:59:19.011Z,15.80
2022-12-03T04:01:46.326Z,16.60
2022-12-03T04:04:20.034Z,15.60
2022-12-03T04:06:46.762Z,17.50
2022-12-03T04:09:13.272Z,14.00
2022-12-03T04:11:58.454Z,18.50
2022-12-03T04:14:24.942Z,19.40
2022-12-03T04:16:51.426Z,19.60
2022-12-03T04:19:18.270Z,20.40
2022-12-03T04:22:03.763Z,18.25
2022-12-03T04:24:30.192Z,20.00
2022-12-03T04:27:15.205Z,16.60
2022-12-03T04:29:41.618Z,18.50
2022-12-03T04:32:26.821Z,20.00
2022-12-03T04:35:11.656Z,20.00
2022-12-03T04:37:38.168Z,20.25
2022-12-03T04:40:24.796Z,19.40
2022-12-03T04:42:51.225Z,19.00
2022-12-03T04:45:17.661Z,19.00
2022-12-03T04:47:44.128Z,20.25
2022-12-03T04:50:10.897Z,19.00
2022-12-03T04:52:37.347Z,20.00
2022-12-03T04:55:03.930Z,17.25
2022-12-03T04:57:30.384Z,20.00
2022-12-03T04:59:56.838Z,19.50
2022-12-03T05:02:23.299Z,19.00
2022-12-03T05:04:49.812Z,20.00
2022-12-03T05:07:16.302Z,20.40
2022-12-03T05:09:42.780Z,20.00
2022-12-03T05:12:09.183Z,23.50
2022-12-03T05:14:35.644Z,24.80
2022-12-03T05:17:02.144Z,24.00
2022-12-03T05:19:47.045Z,20.00
2022-12-03T05:22:13.504Z,16.50
2022-12-03T05:24:39.951Z,18.75
2022-12-03T05:27:09.517Z,17.00
2022-12-03T05:29:35.944Z,14.00
2022-12-03T05:32:03.725Z,15.80
2022-12-03T05:34:30.215Z,15.00
2022-12-03T05:36:56.622Z,17.00
2022-12-03T05:39:23.099Z,15.00
2022-12-03T05:42:07.929Z,15.00
2022-12-03T05:44:34.451Z,15.00
2022-12-03T05:47:00.909Z,14.75
2022-12-03T05:49:27.339Z,15.00
2022-12-03T05:51:58.258Z,14.50
2022-12-03T05:54:25.320Z,16.50
2022-12-03T05:56:51.771Z,16.40
2022-12-03T05:59:18.209Z,15.50
2022-12-03T06:01:44.710Z,15.00
2022-12-03T06:04:11.176Z,15.00
2022-12-03T06:06:37.652Z,14.00
2022-12-03T06:09:04.313Z,14.00
2022-12-03T06:11:34.019Z,15.00
2022-12-03T06:14:00.851Z,15.00
2022-12-03T06:16:27.348Z,17.00
2022-12-03T06:18:53.842Z,13.60
2022-12-03T06:21:20.377Z,12.75
2022-12-03T06:23:46.807Z,14.80
2022-12-03T06:26:13.777Z,13.50
2022-12-03T06:28:41.213Z,14.00
2022-12-03T06:31:07.699Z,12.00
2022-12-03T06:33:34.181Z,11.00
2022-12-03T06:36:00.604Z,9.00
2022-12-03T06:38:27.027Z,8.00
2022-12-03T06:40:53.432Z,7.20
2022-12-03T06:43:19.820Z,6.40
2022-12-03T06:45:47.897Z,8.00
2022-12-03T06:48:15.041Z,8.00
2022-12-03T06:50:41.441Z,8.00
2022-12-03T06:53:07.843Z,6.40
2022-12-03T06:55:34.324Z,7.00
2022-12-03T06:58:00.757Z,8.00
2022-12-03T07:00:27.243Z,11.00
2022-12-03T07:02:53.769Z,11.50
2022-12-03T07:05:20.305Z,11.50
2022-12-03T07:07:52.112Z,12.80
2022-12-03T07:10:19.177Z,17.50
2022-12-03T07:12:45.612Z,13.00
2022-12-03T07:15:12.181Z,13.00
2022-12-03T07:17:38.826Z,16.00
2022-12-03T07:20:05.952Z,15.00
2022-12-03T07:22:32.568Z,12.00
2022-12-03T07:24:59.076Z,14.00
2022-12-03T07:27:25.634Z,13.60
2022-12-03T07:29:52.081Z,14.80
2022-12-03T07:32:18.664Z,22.40
2022-12-03T07:34:45.132Z,21.25
2022-12-03T07:37:11.616Z,25.20
2022-12-03T07:39:38.033Z,24.40
2022-12-03T07:42:04.864Z,27.00
2022-12-03T07:44:33.980Z,23.25
2022-12-03T07:47:00.548Z,23.40
2022-12-03T07:49:27.130Z,23.00
2022-12-03T07:51:54.518Z,24.00
2022-12-03T07:54:21.862Z,25.00
2022-12-03T07:56:48.293Z,24.20
2022-12-03T07:59:15.159Z,23.00
2022-12-03T08:01:41.643Z,24.50
2022-12-03T08:04:08.439Z,22.40
2022-12-03T08:06:34.857Z,20.00
2022-12-03T08:09:01.261Z,18.50
2022-12-03T08:11:29.148Z,19.00
2022-12-03T08:13:57.427Z,12.20
2022-12-03T08:16:24.026Z,18.20
2022-12-03T08:18:51.001Z,17.25
2022-12-03T08:21:18.612Z,14.80
2022-12-03T08:23:45.202Z,13.00
2022-12-03T08:26:20.987Z,17.00
2022-12-03T08:28:47.506Z,15.00
2022-12-03T08:31:20.080Z,16.50
2022-12-03T08:33:54.409Z,16.00
2022-12-03T08:36:20.879Z,17.00
2022-12-03T08:38:57.334Z,14.80
2022-12-03T08:41:42.687Z,15.75
2022-12-03T08:44:14.145Z,15.00
2022-12-03T08:46:40.596Z,14.25
2022-12-03T08:49:07.103Z,18.40
2022-12-03T08:51:33.568Z,18.20
2022-12-03T08:54:04.209Z,17.00
2022-12-03T08:56:30.889Z,17.60
2022-12-03T08:59:03.164Z,20.00
2022-12-03T09:01:31.312Z,17.00
2022-12-03T09:04:02.391Z,19.25
2022-12-03T09:06:28.886Z,17.60
2022-12-03T09:08:55.315Z,18.75
2022-12-03T09:11:21.725Z,16.00
2022-12-03T09:13:49.453Z,17.80
2022-12-03T09:16:15.959Z,16.00
2022-12-03T09:18:42.721Z,18.60
2022-12-03T09:21:09.122Z,16.00
2022-12-03T09:23:35.552Z,17.25
2022-12-03T09:26:01.989Z,18.67
2022-12-03T09:28:28.511Z,16.00
2022-12-03T09:30:54.965Z,16.00
2022-12-03T09:33:21.421Z,14.00
2022-12-03T09:35:47.869Z,15.60
2022-12-03T09:38:14.356Z,16.50
2022-12-03T09:40:41.044Z,15.00
2022-12-03T09:43:07.608Z,16.25
2022-12-03T09:45:34.258Z,16.80
2022-12-03T09:48:02.727Z,17.00
2022-12-03T09:50:30.560Z,16.25
2022-12-03T09:52:59.006Z,19.00
2022-12-03T09:55:27.006Z,19.50
2022-12-03T09:57:54.012Z,20.00
2022-12-03T10:00:23.210Z,20.60
2022-12-03T10:02:51.134Z,16.80
2022-12-03T10:05:19.269Z,12.00
2022-12-03T10:07:46.118Z,13.80
2022-12-03T10:10:20.688Z,16.40
2022-12-03T10:12:47.601Z,15.00
2022-12-03T10:15:15.115Z,15.50
2022-12-03T10:17:41.965Z,14.60
2022-12-03T10:20:11.315Z,14.80
2022-12-03T10:22:37.846Z,20.00
2022-12-03T10:25:06.697Z,24.00
2022-12-03T10:27:33.192Z,20.00
2022-12-03T10:30:00.685Z,14.00
2022-12-03T10:32:38.458Z,31.00
2022-12-03T10:35:09.551Z,30.00
2022-12-03T10:37:36.060Z,17.33
2022-12-03T10:40:02.513Z,15.00
2022-12-03T10:42:30.663Z,14.00
2022-12-03T10:45:09.432Z,7.00
2022-12-03T10:47:36.079Z,26.50
2022-12-03T10:50:04.092Z,18.00
2022-12-03T10:52:30.570Z,6.00
2022-12-03T10:54:57.107Z,5.00
2022-12-03T10:57:23.858Z,2.40
2022-12-03T10:59:50.358Z,2.00
2022-12-03T11:02:19.864Z,3.00
2022-12-03T11:04:46.423Z,3.50
2022-12-03T11:07:15.485Z,4.25
2022-12-03T11:09:45.862Z,2.50
2022-12-03T11:12:18.625Z,5.00
2022-12-03T11:14:51.760Z,4.00
2022-12-03T11:17:37.419Z,4.25
2022-12-03T11:20:04.330Z,4.60
2022-12-03T11:22:41.446Z,6.00
2022-12-03T11:25:29.239Z,5.40
2022-12-03T11:28:13.947Z,10.80
2022-12-03T11:30:50.092Z,9.00
2022-12-03T11:33:24.789Z,3.60
2022-12-03T11:36:03.532Z,4.00
2022-12-03T11:38:52.939Z,1.00
2022-12-03T11:41:20.261Z,1.25
2022-12-03T11:43:52.506Z,1.00
2022-12-03T11:46:20.740Z,2.00
2022-12-03T11:48:48.209Z,2.00
2022-12-03T11:51:19.605Z,0.33
2022-12-03T11:53:46.209Z,18.75
2022-12-03T11:56:20.181Z,13.20
2022-12-03T11:58:47.437Z,16.00
2022-12-03T12:01:15.252Z,4.00
2022-12-03T12:03:49.602Z,3.40
2022-12-03T12:06:18.128Z,4.00
2022-12-03T12:08:50.732Z,7.40
2022-12-03T12:11:25.248Z,3.00
2022-12-03T12:13:54.468Z,12.00
2022-12-03T12:16:50.757Z,16.50
2022-12-03T12:19:36.123Z,18.00
2022-12-03T12:22:16.569Z,9.00
2022-12-03T12:24:47.092Z,5.75
2022-12-03T12:27:17.985Z,3.40
2022-12-03T12:29:46.486Z,6.20
2022-12-03T12:32:13.238Z,6.40
2022-12-03T12:34:40.786Z,13.25
2022-12-03T12:37:11.259Z,13.80
2022-12-03T12:39:38.829Z,3.20
2022-12-03T12:42:18.682Z,13.75
2022-12-03T12:44:45.082Z,3.00
2022-12-03T12:47:12.622Z,4.00
2022-12-03T12:49:39.104Z,5.00
2022-12-03T12:52:05.564Z,1.00
2022-12-03T12:54:32.018Z,1.40
2022-12-03T12:56:58.427Z,2.00
2022-12-03T12:59:25.886Z,2.00
2022-12-03T13:01:52.467Z,2.00
2022-12-03T13:04:20.374Z,1.75
2022-12-03T13:06:47.454Z,2.00
2022-12-03T13:09:16.943Z,2.00
2022-12-03T13:11:45.880Z,1.25
2022-12-03T13:14:20.217Z,0.50
2022-12-03T13:16:47.767Z,0.60
2022-12-03T13:19:24.826Z,2.00
2022-12-03T13:21:52.710Z,1.60
2022-12-03T13:24:38.976Z,2.40
2022-12-03T13:27:20.732Z,1.50
2022-12-03T13:29:47.134Z,1.50
2022-12-03T13:32:16.476Z,2.00
2022-12-03T13:34:44.625Z,2.00
2022-12-03T13:37:20.984Z,2.00
2022-12-03T13:39:51.960Z,2.00
2022-12-03T13:42:39.663Z,1.00
2022-12-03T13:45:26.593Z,2.00
2022-12-03T13:47:57.484Z,3.50
2022-12-03T13:50:37.477Z,5.25
2022-12-03T13:53:14.070Z,2.00
2022-12-03T13:55:43.777Z,2.40
2022-12-03T13:58:10.267Z,2.50
2022-12-03T14:00:36.721Z,2.00
2022-12-03T14:03:03.515Z,2.50
2022-12-03T14:05:29.966Z,5.00
2022-12-03T14:08:02.280Z,2.00
2022-12-03T14:10:29.515Z,2.00
2022-12-03T14:12:56.509Z,2.00
2022-12-03T14:15:23.119Z,3.00
2022-12-03T14:17:49.579Z,3.00
2022-12-03T14:20:16.228Z,1.20
2022-12-03T14:22:42.628Z,2.00
2022-12-03T14:25:09.623Z,1.00
2022-12-03T14:27:36.481Z,1.50
2022-12-03T14:30:03.648Z,3.33
2022-12-03T14:32:30.059Z,3.00
2022-12-03T14:34:56.868Z,3.00
2022-12-03T14:37:23.267Z,4.00
2022-12-03T14:39:49.786Z,1.00
2022-12-03T14:42:17.018Z,3.40
2022-12-03T14:44:45.011Z,8.60
2022-12-03T14:47:11.689Z,6.00
2022-12-03T14:49:38.139Z,3.00
2022-12-03T14:52:08.499Z,10.50
2022-12-03T14:54:39.227Z,3.00
2022-12-03T14:57:05.743Z,3.75
2022-12-03T14:59:32.178Z,5.80
2022-12-03T15:01:58.712Z,7.67
2022-12-03T15:04:25.244Z,3.20
2022-12-03T15:06:51.687Z,5.00
2022-12-03T15:09:18.198Z,5.00
2022-12-03T15:11:46.316Z,5.00
2022-12-03T15:14:13.270Z,7.20
2022-12-03T15:16:39.826Z,3.60
2022-12-03T15:19:06.281Z,21.00
2022-12-03T15:21:34.958Z,9.00
2022-12-03T15:24:02.229Z,8.80
2022-12-03T15:26:29.119Z,5.00
2022-12-03T15:28:55.596Z,7.00
2022-12-03T15:31:22.061Z,4.00
2022-12-03T15:33:48.641Z,4.00
2022-12-03T15:36:15.221Z,19.60
2022-12-03T15:38:41.735Z,21.00
2022-12-03T15:41:28.870Z,20.00
2022-12-03T15:43:56.498Z,6.80
2022-12-03T15:46:23.265Z,8.50
2022-12-03T15:48:49.817Z,75.60
2022-12-03T15:51:16.261Z,71.20
2022-12-03T15:53:42.858Z,40.00
2022-12-03T15:56:09.536Z,35.20
2022-12-03T15:58:36.014Z,19.60
2022-12-03T16:01:02.539Z,87.80
2022-12-03T16:03:29.133Z,29.50
2022-12-03T16:05:55.617Z,64.50
2022-12-03T16:08:22.194Z,66.40
2022-12-03T16:10:48.830Z,49.50
2022-12-03T16:13:15.410Z,57.50
2022-12-03T16:15:41.938Z,19.80
2022-12-03T16:18:08.420Z,32.00
2022-12-03T16:20:34.915Z,26.40
2022-12-03T16:23:01.458Z,21.50
2022-12-03T16:25:27.867Z,15.60
2022-12-03T16:27:54.412Z,25.00
2022-12-03T16:30:20.854Z,43.50
2022-12-03T16:32:47.275Z,118.00
2022-12-03T16:35:13.749Z,20.00
2022-12-03T16:37:40.504Z,53.20
2022-12-03T16:40:07.274Z,165.80
2022-12-03T16:42:33.828Z,116.00
2022-12-03T16:45:03.226Z,215.00
2022-12-03T16:47:33.790Z,96.00
2022-12-03T16:50:01.378Z,48.25
2022-12-03T16:52:27.983Z,67.50
2022-12-03T16:54:54.436Z,52.00
2022-12-03T16:57:20.829Z,110.75
2022-12-03T16:59:47.418Z,150.00
2022-12-03T17:02:13.990Z,68.40
2022-12-03T17:04:40.580Z,56.25
2022-12-03T17:07:07.017Z,208.60
2022-12-03T17:09:33.543Z,30.60
2022-12-03T17:11:59.976Z,49.50
2022-12-03T17:14:32.871Z,124.00
2022-12-03T17:16:59.790Z,34.50
2022-12-03T17:19:26.216Z,45.40
2022-12-03T17:21:54.126Z,21.60
2022-12-03T17:24:21.617Z,113.75
2022-12-03T17:26:48.137Z,73.50
2022-12-03T17:29:14.621Z,38.40
2022-12-03T17:31:42.470Z,15.00
2022-12-03T17:34:09.518Z,7.00
2022-12-03T17:36:35.950Z,127.75
2022-12-03T17:39:02.384Z,12.00
2022-12-03T17:41:28.838Z,28.00
2022-12-03T17:43:55.292Z,47.60
2022-12-03T17:46:21.792Z,103.75
2022-12-03T17:48:48.280Z,17.00
2022-12-03T17:51:14.787Z,23.60
2022-12-03T17:53:41.272Z,21.25
2022-12-03T17:56:07.732Z,50.75
2022-12-03T17:58:34.818Z,92.50
2022-12-03T18:01:03.144Z,83.50
2022-12-03T18:03:30.205Z,278.40
2022-12-03T18:05:56.685Z,128.20
2022-12-03T18:08:23.358Z,221.75
2022-12-03T18:10:50.280Z,367.60
2022-12-03T18:13:16.806Z,355.00
2022-12-03T18:15:43.425Z,47.50
2022-12-03T18:18:09.996Z,153.00
2022-12-03T18:20:36.774Z,153.75
2022-12-03T18:23:03.684Z,25.80
2022-12-03T18:25:30.573Z,30.80
2022-12-03T18:27:57.298Z,148.80
2022-12-03T18:30:23.798Z,103.75
2022-12-03T18:32:50.737Z,42.00
2022-12-03T18:35:17.262Z,55.75
2022-12-03T18:37:43.764Z,128.00
2022-12-03T18:40:16.852Z,31.50
2022-12-03T18:42:48.163Z,77.60
2022-12-03T18:45:15.063Z,33.00
2022-12-03T18:47:42.132Z,53.75
2022-12-03T18:50:09.704Z,60.20
2022-12-03T18:52:36.206Z,35.75
2022-12-03T18:55:02.705Z,30.00
2022-12-03T18:57:29.108Z,66.40
2022-12-03T18:59:55.857Z,69.50
2022-12-03T19:05:09.339Z,36.67
2022-12-03T19:07:35.998Z,44.50
2022-12-03T19:10:03.186Z,21.25
2022-12-03T19:12:31.136Z,21.25
2022-12-03T19:14:57.605Z,31.00
2022-12-03T19:17:24.058Z,24.40
2022-12-03T19:19:50.593Z,33.75
2022-12-03T19:22:17.009Z,27.00
2022-12-03T19:24:44.056Z,53.50
2022-12-03T19:27:10.612Z,30.25
2022-12-03T19:29:37.108Z,36.75
2022-12-03T19:32:03.836Z,30.25
2022-12-03T19:34:30.374Z,64.00
2022-12-03T19:36:56.870Z,24.00
2022-12-03T19:39:24.051Z,22.00
2022-12-03T19:41:50.725Z,34.00
2022-12-03T19:44:18.342Z,41.00
2022-12-03T19:46:44.983Z,11.00
2022-12-03T19:49:11.603Z,67.00
2022-12-03T19:51:38.181Z,14.00
2022-12-03T19:54:05.592Z,71.75
2022-12-03T19:56:32.078Z,33.50
2022-12-03T19:58:58.551Z,27.25
2022-12-03T20:01:26.088Z,43.75
2022-12-03T20:03:54.271Z,22.25
2022-12-03T20:06:23.201Z,20.00
2022-12-03T20:08:50.114Z,29.40
2022-12-03T20:11:18.042Z,39.50
2022-12-03T20:13:44.978Z,41.25
2022-12-03T20:16:13.019Z,32.25
2022-12-03T20:18:43.643Z,33.20
2022-12-03T20:21:11.092Z,19.50
2022-12-03T20:23:38.173Z,37.80
2022-12-03T20:26:11.994Z,27.25
2022-12-03T20:28:38.560Z,29.50
2022-12-03T20:31:09.664Z,5.40
2022-12-03T20:33:36.240Z,6.25
2022-12-03T20:36:03.215Z,14.20
2022-12-03T20:38:30.227Z,8.00
2022-12-03T20:41:00.274Z,4.00
2022-12-03T20:43:26.752Z,1.00
2022-12-03T20:45:55.915Z,25.00
2022-12-03T20:48:26.043Z,6.00
2022-12-03T20:50:52.576Z,3.00
2022-12-03T20:53:24.734Z,3.00
2022-12-03T20:55:58.463Z,2.00
2022-12-03T20:58:24.937Z,0.50
2022-12-03T21:00:51.417Z,3.00
2022-12-03T21:03:17.889Z,3.25
2022-12-03T21:05:44.294Z,4.00
2022-12-03T21:08:11.017Z,6.00
2022-12-03T21:10:44.850Z,5.75
2022-12-03T21:13:15.176Z,5.20
2022-12-03T21:15:42.315Z,6.60
2022-12-03T21:18:10.275Z,5.00
2022-12-03T21:20:40.342Z,9.00
2022-12-03T21:23:06.787Z,6.00
2022-12-03T21:25:33.992Z,5.00
2022-12-03T21:28:00.428Z,5.00
2022-12-03T21:30:26.992Z,7.00
2022-12-03T21:32:53.460Z,5.50
2022-12-03T21:35:19.888Z,26.20
2022-12-03T21:37:46.437Z,91.00
2022-12-03T21:40:13.003Z,23.25
2022-12-03T21:42:39.441Z,21.20
2022-12-03T21:45:06.281Z,13.00
2022-12-03T21:47:37.344Z,9.50
2022-12-03T21:50:05.744Z,7.00
2022-12-03T21:52:33.278Z,26.50
2022-12-03T21:54:59.779Z,26.00
2022-12-03T21:57:26.189Z,27.20
2022-12-03T21:59:52.825Z,42.00
2022-12-03T22:02:19.613Z,25.80
2022-12-03T22:04:49.517Z,26.00
2022-12-03T22:07:15.991Z,23.50
2022-12-03T22:09:42.420Z,23.25
2022-12-03T22:12:08.867Z,26.50
2022-12-03T22:14:35.345Z,24.00
2022-12-03T22:17:01.931Z,16.75
2022-12-03T22:19:28.424Z,13.00
2022-12-03T22:21:54.844Z,11.00
2022-12-03T22:24:21.515Z,9.25
2022-12-03T22:26:47.943Z,10.50
2022-12-03T22:29:14.937Z,9.60
2022-12-03T22:31:41.432Z,8.00
2022-12-03T22:34:07.918Z,10.00
2022-12-03T22:36:34.416Z,10.00
2022-12-03T22:39:00.840Z,8.00
2022-12-03T22:41:27.250Z,7.60
2022-12-03T22:43:53.696Z,8.25
2022-12-03T22:46:20.161Z,10.00
2022-12-03T22:48:47.157Z,9.00
2022-12-03T22:51:20.512Z,11.00
2022-12-03T22:53:47.295Z,11.00
2022-12-03T22:56:13.815Z,10.00
2022-12-03T22:58:41.359Z,12.33
2022-12-03T23:01:08.073Z,10.20
2022-12-03T23:03:35.043Z,11.00
2022-12-03T23:06:01.646Z,12.40
2022-12-03T23:08:28.050Z,12.40
2022-12-03T23:10:54.460Z,13.00
2022-12-03T23:13:21.235Z,12.00
2022-12-03T23:15:48.808Z,12.00
2022-12-03T23:18:15.708Z,10.25
2022-12-03T23:20:46.009Z,11.20
2022-12-03T23:23:12.791Z,13.20
2022-12-03T23:25:39.298Z,13.00
2022-12-03T23:28:05.992Z,15.00
2022-12-03T23:30:35.150Z,15.40
2022-12-03T23:33:01.612Z,15.25
2022-12-03T23:35:28.127Z,14.00
2022-12-03T23:37:54.610Z,13.00
2022-12-03T23:40:21.126Z,16.00
2022-12-03T23:42:47.546Z,16.00
2022-12-03T23:45:13.961Z,16.80
2022-12-03T23:47:40.425Z,19.00
2022-12-03T23:50:07.239Z,19.80
2022-12-03T23:52:35.370Z,21.00
2022-12-03T23:55:01.902Z,16.50
2022-12-03T23:57:28.451Z,18.50
2022-12-03T23:59:55.059Z,16.00
